Time;durP1;ratioP1;P1;durP2;ratioP2;P2;SDS_P1;SDS_P2;PMS_P1;PMS_P2;Temp;Humidity;BMP_temperature;BMP_pressure;BME280_temperature;BME280_humidity;BME280_pressure;Samples;Min_cycle;Max_cycle;Signal;HPM_P1;HPM_P2
2022/09/07 00:01:06;;;;;;;8.70;5.25;;;;;;;19.27;78.91;101159.44;4923980;29;20051;-73
2022/09/07 00:03:34;;;;;;;10.20;5.53;;;;;;;19.23;78.90;101158.72;4932922;29;20052;-73
2022/09/07 00:06:08;;;;;;;9.65;5.85;;;;;;;19.19;79.48;101158.06;4930262;29;20055;-73
2022/09/07 00:08:37;;;;;;;11.68;6.13;;;;;;;19.17;80.17;101154.66;4932137;29;20055;-73
2022/09/07 00:11:11;;;;;;;14.27;7.07;;;;;;;19.15;80.24;101145.88;4930671;29;21033;-73
2022/09/07 00:13:41;;;;;;;12.00;7.63;;;;;;;19.12;80.37;101134.53;4918767;29;20091;-75
2022/09/07 00:16:13;;;;;;;11.20;8.18;;;;;;;19.08;80.63;101131.16;4932110;29;20095;-72
2022/09/07 00:18:41;;;;;;;13.15;8.25;;;;;;;19.08;80.78;101137.38;4926213;29;20056;-74
2022/09/07 00:21:15;;;;;;;10.52;8.15;;;;;;;19.10;81.23;101113.22;4929855;29;20504;-74
2022/09/07 00:23:46;;;;;;;14.15;9.18;;;;;;;19.06;81.43;101119.72;4932920;29;20052;-73
2022/09/07 00:26:19;;;;;;;16.10;10.07;;;;;;;19.02;81.75;101108.38;4932559;29;20052;-73
2022/09/07 00:28:48;;;;;;;14.40;10.38;;;;;;;18.99;81.67;101103.22;4931797;29;20060;-73
2022/09/07 00:31:22;;;;;;;17.13;9.82;;;;;;;18.98;82.60;101092.59;4932620;29;20048;-73
2022/09/07 00:33:52;;;;;;;12.50;10.25;;;;;;;18.93;82.56;101099.09;4931413;29;20044;-73
2022/09/07 00:36:22;;;;;;;13.85;10.77;;;;;;;18.90;82.96;101090.41;4931192;28;20051;-72
2022/09/07 00:38:50;;;;;;;13.45;11.75;;;;;;;18.84;83.27;101088.97;4932325;29;20610;-73
2022/09/07 00:41:19;;;;;;;13.90;11.55;;;;;;;18.85;83.62;101077.31;4928708;28;20056;-74
2022/09/07 00:43:52;;;;;;;18.20;13.38;;;;;;;18.81;83.56;101070.44;4926678;29;20040;-74
2022/09/07 00:46:26;;;;;;;17.77;12.10;;;;;;;18.77;83.20;101066.25;4932247;29;20048;-73
2022/09/07 00:49:13;;;;;;;15.25;13.52;;;;;;;18.78;83.16;101078.63;4930151;29;20055;-74
2022/09/07 00:51:53;;;;;;;15.55;13.80;;;;;;;18.78;83.18;101071.50;4931124;29;20060;-74
2022/09/07 00:54:46;;;;;;;19.17;14.27;;;;;;;18.78;83.66;101073.28;4933090;29;20048;-74
2022/09/07 00:57:14;;;;;;;18.38;13.82;;;;;;;18.80;83.59;101070.53;4929415;29;20134;-74
2022/09/07 00:59:51;;;;;;;18.65;13.95;;;;;;;18.84;84.01;101085.41;4931658;29;20420;-74
2022/09/07 01:02:19;;;;;;;16.60;12.38;;;;;;;18.87;84.86;101087.91;4930441;29;20044;-74
2022/09/07 01:04:52;;;;;;;16.98;12.10;;;;;;;18.82;84.69;101098.03;4926079;29;20048;-74
2022/09/07 01:07:19;;;;;;;12.98;8.50;;;;;;;18.73;83.62;101097.59;4927163;29;20836;-75
2022/09/07 01:09:47;;;;;;;10.20;8.18;;;;;;;18.62;83.58;101103.59;4932540;29;20041;-72
2022/09/07 01:12:14;;;;;;;10.38;8.32;;;;;;;18.53;83.90;101112.16;4927470;29;20055;-72
2022/09/07 01:14:50;;;;;;;8.93;6.82;;;;;;;18.49;84.32;101118.63;4932829;29;20051;-72
2022/09/07 01:17:48;;;;;;;8.70;6.53;;;;;;;18.44;84.18;101126.06;4930267;29;20057;-73
2022/09/07 01:20:38;;;;;;;10.23;6.57;;;;;;;18.38;84.29;101129.06;4924468;29;20056;-72
2022/09/07 01:23:33;;;;;;;8.27;5.78;;;;;;;18.36;84.38;101129.19;4931756;29;20115;-72
2022/09/07 01:26:20;;;;;;;7.38;5.90;;;;;;;18.34;84.40;101125.72;4921716;29;20048;-71
2022/09/07 01:29:01;;;;;;;9.13;6.57;;;;;;;18.34;84.56;101123.06;4929008;29;20041;-72
2022/09/07 01:31:30;;;;;;;8.27;5.90;;;;;;;18.33;84.36;101131.16;4929284;29;20048;-72
2022/09/07 01:34:16;;;;;;;7.40;5.68;;;;;;;18.30;84.30;101121.53;4925639;29;20072;-72
2022/09/07 01:36:58;;;;;;;9.27;6.53;;;;;;;18.26;84.48;101117.31;4929424;29;20927;-72
2022/09/07 01:39:39;;;;;;;10.18;6.63;;;;;;;18.25;84.53;101110.25;4931176;29;20055;-72
2022/09/07 01:42:14;;;;;;;10.55;6.30;;;;;;;18.26;84.58;101117.31;4925809;29;20040;-72
2022/09/07 01:44:56;;;;;;;10.68;6.95;;;;;;;18.26;84.72;101125.31;4931029;29;20532;-72
2022/09/07 01:47:33;;;;;;;8.88;6.47;;;;;;;18.26;84.88;101120.84;4932829;29;20131;-72
2022/09/07 01:50:36;;;;;;;9.90;6.70;;;;;;;18.24;85.02;101117.44;4933722;29;20133;-72
2022/09/07 01:53:22;;;;;;;8.63;6.68;;;;;;;18.22;85.55;101111.31;4935362;29;20135;-72
2022/09/07 01:56:28;;;;;;;9.40;6.65;;;;;;;18.20;85.32;101113.19;4935332;28;20044;-72
2022/09/07 01:59:06;;;;;;;11.43;6.80;;;;;;;18.17;85.11;101116.03;4931782;29;20063;-72
2022/09/07 02:01:44;;;;;;;14.25;6.68;;;;;;;18.16;85.59;101109.84;4934483;29;20052;-72
2022/09/07 02:04:22;;;;;;;10.85;6.70;;;;;;;18.18;85.44;101109.75;4933933;29;20092;-72
2022/09/07 02:07:04;;;;;;;8.15;5.88;;;;;;;18.13;85.39;101106.50;4934619;29;20080;-73
2022/09/07 02:09:50;;;;;;;8.60;6.47;;;;;;;18.12;85.54;101099.44;4930356;29;20906;-73
2022/09/07 02:12:25;;;;;;;9.38;5.75;;;;;;;18.14;85.67;101093.06;4933523;29;20058;-73
2022/09/07 02:15:01;;;;;;;6.60;5.70;;;;;;;18.21;85.44;101095.41;4934331;29;20043;-76
2022/09/07 02:17:36;;;;;;;8.32;6.28;;;;;;;18.20;85.34;101091.84;4944805;28;20143;-76
2022/09/07 02:20:15;;;;;;;10.68;6.53;;;;;;;18.14;85.01;101094.91;4927887;29;20049;-76
2022/09/07 02:22:49;;;;;;;7.88;6.53;;;;;;;18.12;85.39;101094.13;4935454;29;20041;-76
2022/09/07 02:25:26;;;;;;;9.15;6.90;;;;;;;18.14;85.37;101094.91;4935489;29;20048;-75
2022/09/07 02:28:07;;;;;;;8.52;6.57;;;;;;;18.17;85.47;101092.03;4935762;28;20043;-75
2022/09/07 02:30:35;;;;;;;8.48;6.32;;;;;;;18.18;85.40;101095.56;4938924;28;20048;-75
2022/09/07 02:33:04;;;;;;;9.30;7.18;;;;;;;18.18;85.38;101088.41;4933013;29;20499;-75
2022/09/07 02:35:33;;;;;;;7.38;6.05;;;;;;;18.21;85.43;101076.72;4933020;29;20048;-76
2022/09/07 02:38:04;;;;;;;8.25;6.10;;;;;;;18.27;85.34;101065.69;4933589;29;20043;-76
2022/09/07 02:40:33;;;;;;;10.82;7.00;;;;;;;18.29;85.24;101079.78;4934766;29;20912;-77
2022/09/07 02:43:07;;;;;;;9.50;7.07;;;;;;;18.33;85.77;101086.66;4933463;29;20953;-77
2022/09/07 02:45:46;;;;;;;8.35;6.80;;;;;;;18.35;85.68;101082.09;4931873;29;20048;-77
2022/09/07 02:48:30;;;;;;;8.93;5.40;;;;;;;18.35;85.57;101084.75;4933471;29;20052;-77
2022/09/07 02:51:12;;;;;;;7.50;6.07;;;;;;;18.34;85.17;101079.53;4934244;29;20052;-77
2022/09/07 02:53:57;;;;;;;7.68;5.75;;;;;;;18.30;84.62;101082.38;4933143;29;20078;-77
2022/09/07 02:56:53;;;;;;;7.55;4.97;;;;;;;18.30;85.03;101093.03;4934062;29;20040;-77
2022/09/07 02:59:51;;;;;;;6.10;4.43;;;;;;;18.28;84.57;101092.25;4932664;29;20056;-76
2022/09/07 03:02:50;;;;;;;6.55;4.40;;;;;;;18.22;84.36;101084.63;4933825;29;20043;-73
2022/09/07 03:05:46;;;;;;;5.53;4.18;;;;;;;18.12;84.30;101084.28;4933751;29;20127;-73
2022/09/07 03:08:22;;;;;;;6.80;4.47;;;;;;;18.05;84.90;101079.44;4932762;29;20155;-73
2022/09/07 03:10:52;;;;;;;6.47;4.70;;;;;;;18.00;85.03;101072.53;4934070;29;20048;-73
2022/09/07 03:13:24;;;;;;;6.85;4.90;;;;;;;18.01;85.41;101073.38;4931761;29;20083;-73
2022/09/07 03:15:52;;;;;;;5.47;4.60;;;;;;;18.01;85.53;101076.06;4932461;29;20091;-73
2022/09/07 03:18:25;;;;;;;8.15;4.50;;;;;;;17.99;85.00;101076.16;4924385;29;20049;-73
2022/09/07 03:20:54;;;;;;;9.57;5.00;;;;;;;18.00;85.56;101075.22;4933435;29;20046;-73
2022/09/07 03:23:22;;;;;;;7.72;5.30;;;;;;;18.03;85.81;101079.50;4933348;29;20076;-73
2022/09/07 03:25:49;;;;;;;8.68;4.90;;;;;;;18.05;85.79;101066.94;4934891;28;20063;-73
2022/09/07 03:28:17;;;;;;;7.75;5.55;;;;;;;18.06;85.75;101076.66;4933133;29;20047;-73
2022/09/07 03:30:46;;;;;;;8.60;5.35;;;;;;;18.03;85.69;101066.16;4927957;29;20040;-73
2022/09/07 03:33:15;;;;;;;7.90;5.68;;;;;;;18.00;85.54;101072.53;4932685;28;20049;-73
2022/09/07 03:35:44;;;;;;;7.15;5.40;;;;;;;17.97;85.70;101072.72;4934253;28;20075;-73
2022/09/07 03:38:11;;;;;;;6.80;5.78;;;;;;;17.99;85.86;101078.81;4932317;28;20044;-73
2022/09/07 03:40:42;;;;;;;6.93;5.43;;;;;;;18.02;86.16;101071.59;4932407;29;20131;-74
2022/09/07 03:43:09;;;;;;;7.78;5.68;;;;;;;17.99;86.12;101070.81;4933704;29;20075;-74
2022/09/07 03:45:36;;;;;;;9.88;6.13;;;;;;;17.99;86.01;101068.16;4932479;29;20067;-75
2022/09/07 03:48:03;;;;;;;9.25;6.38;;;;;;;17.99;86.11;101067.31;4932326;29;20093;-75
2022/09/07 03:50:30;;;;;;;6.38;5.38;;;;;;;17.97;86.16;101063.88;4930720;29;20079;-75
2022/09/07 03:52:57;;;;;;;7.50;5.75;;;;;;;18.00;nan;101071.69;4931172;29;20044;-76
2022/09/07 03:55:24;;;;;;;8.63;6.35;;;;;;;17.98;86.41;101069.09;4932107;29;20050;-76
2022/09/07 03:57:51;;;;;;;11.05;5.78;;;;;;;17.99;86.56;101062.81;4933106;29;20522;-76
2022/09/07 04:00:19;;;;;;;8.65;5.68;;;;;;;17.99;86.55;101062.81;4931898;29;20052;-76
2022/09/07 04:02:47;;;;;;;7.28;5.80;;;;;;;17.95;86.63;101060.38;4930317;29;20044;-76
2022/09/07 04:05:14;;;;;;;8.75;5.88;;;;;;;17.94;86.74;101064.00;4933488;29;20044;-76
2022/09/07 04:07:41;;;;;;;8.73;5.70;;;;;;;17.98;86.80;101070.91;4932943;29;20075;-76
2022/09/07 04:10:08;;;;;;;7.85;6.68;;;;;;;18.03;86.84;101078.66;4930841;29;20542;-76
2022/09/07 04:12:35;;;;;;;7.65;6.47;;;;;;;18.06;86.79;101076.66;4930967;29;20452;-75
2022/09/07 04:15:03;;;;;;;10.80;7.47;;;;;;;18.09;86.70;101073.81;4932426;29;20551;-75
2022/09/07 04:17:31;;;;;;;11.68;7.85;;;;;;;18.11;86.75;101071.91;4930180;29;20044;-74
2022/09/07 04:19:58;;;;;;;10.48;7.70;;;;;;;18.15;86.79;101068.13;4916262;29;20052;-75
2022/09/07 04:22:25;;;;;;;9.77;7.30;;;;;;;18.18;86.72;101063.56;4932490;29;20041;-75
2022/09/07 04:24:52;;;;;;;11.52;7.35;;;;;;;18.19;86.66;101065.28;4933724;28;20044;-76
2022/09/07 04:27:19;;;;;;;12.82;6.90;;;;;;;18.18;86.78;101066.22;4933158;29;20847;-77
2022/09/07 04:29:46;;;;;;;8.85;6.85;;;;;;;18.19;86.60;101065.28;4931549;29;20048;-74
2022/09/07 04:32:13;;;;;;;9.80;7.93;;;;;;;18.15;86.58;101049.44;4933428;28;20509;-73
2022/09/07 04:34:42;;;;;;;11.00;8.20;;;;;;;18.09;86.44;101046.28;4938772;28;20776;-76
2022/09/07 04:37:09;;;;;;;10.45;8.05;;;;;;;18.06;86.56;101049.97;4923205;29;20048;-76
2022/09/07 04:39:38;;;;;;;10.65;8.35;;;;;;;18.05;86.68;101053.59;4931977;29;20052;-72
2022/09/07 04:42:05;;;;;;;12.30;8.48;;;;;;;18.07;86.74;101061.50;4925614;29;20056;-76
2022/09/07 04:44:32;;;;;;;10.13;8.38;;;;;;;18.07;86.77;101056.16;4931259;29;20499;-75
2022/09/07 04:46:59;;;;;;;14.55;9.15;;;;;;;18.09;86.78;101067.59;4931790;29;20053;-75
2022/09/07 04:49:26;;;;;;;11.68;10.48;;;;;;;18.11;86.88;101068.38;4932139;29;20115;-77
2022/09/07 04:51:54;;;;;;;14.98;9.80;;;;;;;18.09;86.61;101063.16;4932014;29;20052;-75
2022/09/07 04:54:21;;;;;;;12.50;9.38;;;;;;;18.06;86.41;101067.81;4932361;29;20044;-75
2022/09/07 04:56:49;;;;;;;15.10;10.70;;;;;;;18.08;86.59;101074.75;4934402;28;20153;-75
2022/09/07 04:59:16;;;;;;;11.60;9.35;;;;;;;18.13;86.65;101075.34;4941498;28;20439;-75
2022/09/07 05:01:43;;;;;;;13.38;10.50;;;;;;;18.16;86.75;101077.00;4933416;28;20055;-75
2022/09/07 05:04:10;;;;;;;13.27;9.95;;;;;;;18.19;86.68;101079.47;4932791;28;20052;-75
2022/09/07 05:06:37;;;;;;;13.25;9.43;;;;;;;18.22;86.70;101078.41;4913272;28;20049;-75
2022/09/07 05:09:04;;;;;;;13.23;9.90;;;;;;;18.23;86.69;101081.00;4926045;29;20036;-76
2022/09/07 05:11:32;;;;;;;12.55;10.40;;;;;;;18.26;86.92;101083.47;4933130;29;20075;-75
2022/09/07 05:14:02;;;;;;;16.15;10.75;;;;;;;18.35;86.80;101084.75;4948560;28;20095;-76
2022/09/07 05:16:30;;;;;;;15.50;10.82;;;;;;;18.36;86.57;101080.28;4932745;28;20040;-76
2022/09/07 05:19:01;;;;;;;14.57;10.50;;;;;;;18.36;86.36;101081.13;4932938;29;20052;-76
2022/09/07 05:21:33;;;;;;;21.58;11.63;;;;;;;18.36;86.24;101074.97;4922812;28;20047;-75
2022/09/07 05:24:01;;;;;;;16.90;11.32;;;;;;;18.34;85.34;101080.38;4925841;28;20533;-76
2022/09/07 05:26:32;;;;;;;21.65;12.38;;;;;;;18.33;85.34;101089.31;4946355;28;20043;-76
2022/09/07 05:29:04;;;;;;;18.83;12.65;;;;;;;18.35;84.95;101083.91;4934987;28;20040;-75
2022/09/07 05:31:52;;;;;;;15.60;9.82;;;;;;;18.33;84.77;101089.31;4934549;28;20492;-75
2022/09/07 05:34:20;;;;;;;15.07;10.30;;;;;;;18.38;84.79;101091.72;4942715;28;20047;-75
2022/09/07 05:36:55;;;;;;;17.33;12.75;;;;;;;18.40;84.71;101082.69;4933083;28;20532;-75
2022/09/07 05:39:23;;;;;;;16.60;12.05;;;;;;;18.42;84.53;101074.56;4932298;28;20931;-76
2022/09/07 05:41:50;;;;;;;14.68;11.70;;;;;;;18.40;84.18;101074.69;4929735;28;20040;-76
2022/09/07 05:44:17;;;;;;;14.82;12.13;;;;;;;18.39;84.17;101072.09;4937878;28;20047;-76
2022/09/07 05:47:04;;;;;;;14.75;11.75;;;;;;;18.41;84.17;101073.72;4948983;28;20036;-76
2022/09/07 05:49:32;;;;;;;14.57;12.20;;;;;;;18.44;84.15;101080.69;4953818;28;20048;-76
2022/09/07 05:51:59;;;;;;;19.00;12.30;;;;;;;18.46;83.86;101082.31;4948889;28;20115;-76
2022/09/07 05:54:26;;;;;;;14.55;12.25;;;;;;;18.49;84.17;101083.09;4947420;28;20048;-75
2022/09/07 05:56:53;;;;;;;16.63;12.60;;;;;;;18.51;83.84;101082.03;4942750;28;20044;-76
2022/09/07 05:59:20;;;;;;;16.15;12.25;;;;;;;18.54;83.87;101084.53;4931543;28;20514;-76
2022/09/07 06:01:48;;;;;;;15.90;11.32;;;;;;;18.60;83.78;101083.31;4952453;28;20042;-76
2022/09/07 06:04:15;;;;;;;18.15;12.95;;;;;;;18.69;83.88;101092.53;4953546;28;20094;-75
2022/09/07 06:06:42;;;;;;;29.40;13.88;;;;;;;18.74;83.57;101091.31;4941221;28;20052;-77
2022/09/07 06:09:30;;;;;;;22.23;13.77;;;;;;;18.80;83.34;101091.91;4934932;29;20510;-75
2022/09/07 06:11:57;;;;;;;28.00;15.07;;;;;;;18.83;83.39;101091.69;4935754;28;20531;-76
2022/09/07 06:14:24;;;;;;;20.17;13.43;;;;;;;18.86;83.13;101099.53;4934860;29;20044;-76
2022/09/07 06:16:51;;;;;;;17.00;12.90;;;;;;;18.91;83.01;101084.09;4935412;29;20062;-76
2022/09/07 06:19:18;;;;;;;20.85;11.90;;;;;;;18.98;82.68;101090.81;4935666;29;20119;-73
2022/09/07 06:21:45;;;;;;;18.73;12.93;;;;;;;19.09;82.64;101092.78;4935194;29;20431;-73
2022/09/07 06:24:12;;;;;;;16.35;12.95;;;;;;;19.18;82.72;101088.69;4935387;29;20088;-73
2022/09/07 06:26:39;;;;;;;23.83;13.57;;;;;;;19.26;82.65;101088.22;4934560;29;20514;-73
2022/09/07 06:29:08;;;;;;;18.33;13.45;;;;;;;19.33;82.89;101093.06;4935687;29;20119;-73
2022/09/07 06:31:36;;;;;;;27.48;15.35;;;;;;;19.36;82.66;101092.88;4933987;29;20055;-73
2022/09/07 06:34:24;;;;;;;18.63;13.43;;;;;;;19.36;82.49;101090.19;4926734;29;20048;-74
2022/09/07 06:36:51;;;;;;;15.65;13.63;;;;;;;19.38;82.43;101095.47;4934933;28;20553;-73
2022/09/07 06:39:18;;;;;;;17.52;13.55;;;;;;;19.38;82.15;101099.00;4935252;29;20055;-73
2022/09/07 06:41:45;;;;;;;16.15;13.73;;;;;;;19.36;81.88;101092.03;4935015;29;20048;-73
2022/09/07 06:44:30;;;;;;;;;;;;;;;19.32;81.79;101095.84;4919749;29;20052;-73
2022/09/07 06:46:57;;;;;;;26.30;16.48;;;;;;;19.27;81.56;101092.63;4934325;29;19926;-73
2022/09/07 06:49:27;;;;;;;18.17;14.27;;;;;;;19.17;81.20;101095.88;4935763;29;20056;-73
2022/09/07 06:51:54;;;;;;;19.67;15.55;;;;;;;19.07;81.21;101105.41;4934214;28;20052;-72
2022/09/07 06:54:22;;;;;;;31.45;17.15;;;;;;;19.02;81.65;101104.81;4954445;28;20043;-72
2022/09/07 06:57:10;;;;;;;21.83;15.95;;;;;;;19.03;81.64;101109.22;4947593;28;20040;-72
2022/09/07 06:59:38;;;;;;;25.42;16.75;;;;;;;19.05;81.96;101110.84;4934832;29;20044;-72
2022/09/07 07:02:10;;;;;;;19.35;15.10;;;;;;;19.08;81.83;101107.97;4934722;28;20048;-72
2022/09/07 07:04:37;;;;;;;40.97;16.70;;;;;;;19.18;81.83;101108.25;4935427;29;20044;-72
2022/09/07 07:07:12;;;;;;;24.45;16.27;;;;;;;19.32;81.61;101112.75;4934186;29;20120;-72
2022/09/07 07:09:40;;;;;;;22.63;17.00;;;;;;;19.38;81.15;101122.22;4933886;29;20327;-73
2022/09/07 07:12:09;;;;;;;22.83;17.85;;;;;;;19.41;81.22;101122.00;4934141;29;20080;-73
2022/09/07 07:14:37;;;;;;;21.70;16.90;;;;;;;19.42;81.38;101118.38;4915460;29;20057;-74
2022/09/07 07:17:11;;;;;;;21.25;17.27;;;;;;;19.41;81.06;101122.00;4921507;29;20051;-73
2022/09/07 07:19:42;;;;;;;21.73;16.63;;;;;;;19.37;80.94;101132.03;4934540;29;20484;-73
2022/09/07 07:22:09;;;;;;;25.70;18.17;;;;;;;19.32;80.75;101139.47;4933795;28;20490;-73
2022/09/07 07:24:56;;;;;;;25.45;19.67;;;;;;;19.26;80.69;101137.19;4934143;29;20132;-73
2022/09/07 07:27:23;;;;;;;24.85;17.92;;;;;;;19.23;80.97;101135.56;4924546;29;20127;-73
2022/09/07 07:29:51;;;;;;;23.52;17.60;;;;;;;19.31;81.24;101143.09;4934747;29;20044;-74
2022/09/07 07:32:18;;;;;;;22.50;19.60;;;;;;;19.36;80.93;101135.66;4934464;29;20508;-73
2022/09/07 07:34:45;;;;;;;24.63;16.95;;;;;;;19.42;80.75;101138.91;4934536;29;20048;-73
2022/09/07 07:37:14;;;;;;;17.52;14.85;;;;;;;19.47;80.76;101137.66;4931856;29;20040;-74
2022/09/07 07:39:41;;;;;;;30.73;16.95;;;;;;;19.59;80.56;101141.34;4928604;29;20040;-73
2022/09/07 07:42:28;;;;;;;20.92;16.33;;;;;;;19.71;80.09;101151.28;4925541;29;20048;-74
2022/09/07 07:44:55;;;;;;;22.25;16.92;;;;;;;19.81;80.00;101156.88;4934011;29;20048;-73
2022/09/07 07:47:48;;;;;;;27.85;16.80;;;;;;;19.76;78.91;101156.34;4933146;29;20115;-74
2022/09/07 07:50:40;;;;;;;22.33;18.10;;;;;;;19.75;79.47;101154.59;4933654;29;20068;-74
2022/09/07 07:53:07;;;;;;;23.17;15.32;;;;;;;19.76;79.56;101152.78;4932562;29;20048;-73
2022/09/07 07:55:59;;;;;;;24.77;18.10;;;;;;;19.73;78.99;101150.31;4934113;28;20036;-73
2022/09/07 07:58:27;;;;;;;23.25;18.00;;;;;;;19.63;78.62;101150.03;4933147;28;20051;-73
2022/09/07 08:01:00;;;;;;;23.50;17.98;;;;;;;19.50;78.84;101150.81;4933994;28;20052;-73
2022/09/07 08:03:28;;;;;;;31.20;19.23;;;;;;;19.44;79.00;101145.88;4927609;29;20048;-74
2022/09/07 08:06:07;;;;;;;23.40;19.10;;;;;;;19.46;79.58;101143.09;4933665;29;20267;-74
2022/09/07 08:08:36;;;;;;;23.33;18.42;;;;;;;19.58;79.62;101153.00;4933312;28;20036;-73
2022/09/07 08:11:13;;;;;;;30.48;19.10;;;;;;;19.74;79.49;101154.72;4934337;29;20056;-74
2022/09/07 08:13:43;;;;;;;30.33;18.30;;;;;;;19.96;79.15;101155.06;4933056;29;20040;-73
2022/09/07 08:16:12;;;;;;;25.17;17.20;;;;;;;20.17;78.33;101157.28;4934291;29;20906;-73
2022/09/07 08:18:39;;;;;;;23.58;17.58;;;;;;;20.36;77.67;101164.09;4931731;29;20078;-73
2022/09/07 08:21:12;;;;;;;26.42;17.45;;;;;;;20.49;77.86;101162.31;4933802;28;20055;-74
2022/09/07 08:23:40;;;;;;;26.38;18.40;;;;;;;20.74;77.41;101156.19;4933482;29;20055;-74
2022/09/07 08:26:09;;;;;;;26.30;17.90;;;;;;;20.85;76.30;101170.66;4931142;29;20700;-74
2022/09/07 08:28:40;;;;;;;26.17;18.95;;;;;;;20.90;76.08;101169.38;4934081;29;20092;-73
2022/09/07 08:31:12;;;;;;;25.60;18.30;;;;;;;20.99;76.33;101167.03;4933488;29;20504;-73
2022/09/07 08:33:42;;;;;;;30.90;17.83;;;;;;;21.09;75.36;101162.75;4930271;29;20051;-74
2022/09/07 08:36:21;;;;;;;23.92;17.77;;;;;;;21.11;74.80;101166.19;4932236;29;20104;-72
2022/09/07 08:38:48;;;;;;;24.65;17.58;;;;;;;21.11;74.57;101163.50;4932707;29;20056;-75
2022/09/07 08:41:46;;;;;;;22.98;18.40;;;;;;;21.06;74.14;101168.34;4933853;29;20051;-73
2022/09/07 08:44:37;;;;;;;26.73;18.88;;;;;;;20.97;74.33;101169.81;4933469;29;20563;-73
2022/09/07 08:47:27;;;;;;;25.75;19.45;;;;;;;21.04;74.34;101173.78;4933442;29;20707;-73
2022/09/07 08:50:03;;;;;;;21.55;16.55;;;;;;;21.18;73.78;101166.63;4931234;29;20072;-73
2022/09/07 08:52:47;;;;;;;21.67;16.70;;;;;;;21.36;73.59;101172.50;4932238;29;20859;-74
2022/09/07 08:55:35;;;;;;;21.48;16.67;;;;;;;21.42;73.14;101166.69;4931332;29;20852;-73
2022/09/07 08:58:23;;;;;;;22.55;17.25;;;;;;;21.59;72.81;101162.84;4901007;29;20511;-74
2022/09/07 09:01:17;;;;;;;31.67;18.05;;;;;;;21.76;72.56;101174.19;4932775;29;20151;-75
2022/09/07 09:04:01;;;;;;;21.23;16.85;;;;;;;21.88;72.41;101182.19;4936376;28;20151;-74
2022/09/07 09:07:21;;;;;;;21.02;17.48;;;;;;;21.93;71.40;101183.69;4933686;29;20134;-75
2022/09/07 09:11:02;;;;;;;22.23;16.35;;;;;;;22.05;70.88;101179.22;4936798;29;20040;-74
2022/09/07 09:14:09;;;;;;;21.05;15.85;;;;;;;22.18;69.74;101169.31;4846495;29;20050;-75
2022/09/07 09:16:58;;;;;;;20.83;15.80;;;;;;;22.18;69.68;101178.22;4898795;29;20132;-73
2022/09/07 09:20:06;;;;;;;21.25;16.33;;;;;;;22.13;68.23;101188.44;4936452;29;20044;-75
2022/09/07 09:22:34;;;;;;;22.17;17.23;;;;;;;22.08;69.05;101184.38;4936053;29;20113;-75
2022/09/07 09:25:06;;;;;;;23.30;17.15;;;;;;;21.99;69.81;101186.78;4936483;29;20540;-75
2022/09/07 09:27:33;;;;;;;22.67;17.23;;;;;;;22.00;69.54;101185.81;4936696;29;20044;-74
2022/09/07 09:30:00;;;;;;;18.20;14.60;;;;;;;22.07;67.86;101188.03;4935885;29;20067;-75
2022/09/07 09:32:33;;;;;;;30.95;15.30;;;;;;;22.07;66.48;101193.41;4935808;29;20416;-75
2022/09/07 09:35:03;;;;;;;22.65;14.98;;;;;;;22.06;67.04;101189.00;4936607;29;20571;-74
2022/09/07 09:37:38;;;;;;;24.30;14.23;;;;;;;21.98;67.45;101185.06;4936908;29;20042;-75
2022/09/07 09:40:16;;;;;;;23.63;14.13;;;;;;;22.14;66.93;101187.47;4936453;29;20127;-75
2022/09/07 09:42:43;;;;;;;21.48;13.63;;;;;;;22.30;65.66;101192.56;4935025;29;20060;-75
2022/09/07 09:45:20;;;;;;;23.27;14.55;;;;;;;22.44;64.90;101182.63;4936374;29;20123;-75
2022/09/07 09:47:53;;;;;;;17.70;13.52;;;;;;;22.59;65.13;101194.03;4936408;28;20047;-75
2022/09/07 09:50:29;;;;;;;19.15;14.20;;;;;;;22.71;65.51;101190.44;4935556;28;20116;-75
2022/09/07 09:53:31;;;;;;;23.13;13.13;;;;;;;22.77;64.57;101189.09;4935213;29;20079;-74
2022/09/07 09:56:03;;;;;;;15.63;13.20;;;;;;;22.86;64.57;101188.41;4936226;29;20044;-75
2022/09/07 09:58:35;;;;;;;17.83;13.13;;;;;;;22.99;64.23;101182.06;4935738;29;20052;-75
2022/09/07 10:01:32;;;;;;;16.17;12.25;;;;;;;23.23;64.13;101185.56;4935204;29;20064;-75
2022/09/07 10:04:37;;;;;;;15.30;11.75;;;;;;;23.39;63.91;101192.41;4932240;29;20568;-75
2022/09/07 10:07:11;;;;;;;26.35;13.00;;;;;;;23.66;63.62;101183.97;4857594;29;20065;-74
2022/09/07 10:09:40;;;;;;;;;;;;;;;23.94;62.38;101178.19;4924866;29;20059;-74
2022/09/07 10:12:35;;;;;;;14.40;10.65;;;;;;;24.10;60.52;101170.59;4934982;29;19931;-74
2022/09/07 10:15:19;;;;;;;12.13;10.50;;;;;;;24.19;59.16;101174.34;4935239;29;20870;-73
2022/09/07 10:17:49;;;;;;;24.60;11.50;;;;;;;24.22;60.35;101168.69;4935523;29;20112;-75
2022/09/07 10:20:16;;;;;;;14.82;11.57;;;;;;;24.22;60.07;101174.09;4935835;29;20153;-74
2022/09/07 10:23:03;;;;;;;16.80;9.88;;;;;;;24.02;58.35;101168.50;4935453;29;20055;-73
2022/09/07 10:25:36;;;;;;;26.52;11.30;;;;;;;23.73;58.68;101170.88;4916114;29;20041;-75
2022/09/07 10:28:10;;;;;;;14.07;9.97;;;;;;;23.47;59.88;101175.69;4927420;29;20048;-75
2022/09/07 10:31:00;;;;;;;18.67;10.60;;;;;;;23.25;60.77;101178.22;4935877;29;20390;-74
2022/09/07 10:33:54;;;;;;;17.10;10.27;;;;;;;23.15;61.28;101168.28;4932636;29;20047;-73
2022/09/07 10:37:03;;;;;;;14.65;9.10;;;;;;;23.53;60.83;101170.66;4935119;29;20600;-75
2022/09/07 10:39:42;;;;;;;14.68;8.13;;;;;;;23.85;60.29;101161.81;4935115;29;20048;-74
2022/09/07 10:42:29;;;;;;;10.63;7.80;;;;;;;24.17;57.58;101161.00;4934195;28;20564;-73
2022/09/07 10:45:45;;;;;;;9.82;7.15;;;;;;;24.15;56.69;101160.31;4916281;29;20071;-75
2022/09/07 10:48:39;;;;;;;10.82;7.20;;;;;;;24.09;57.15;101154.56;4934497;29;20048;-74
2022/09/07 10:51:34;;;;;;;8.90;6.40;;;;;;;24.33;56.63;101165.97;4934870;28;20575;-74
2022/09/07 10:54:14;;;;;;;9.90;6.13;;;;;;;24.43;54.61;101159.81;4916155;29;20799;-75
2022/09/07 10:57:38;;;;;;;7.65;6.00;;;;;;;24.64;55.70;101157.16;4920048;29;20052;-73
2022/09/07 11:00:13;;;;;;;8.05;5.10;;;;;;;25.21;54.61;101162.19;4935099;28;20052;-73
2022/09/07 11:03:11;;;;;;;9.35;5.90;;;;;;;25.59;51.78;101157.94;4934177;28;20052;-74
2022/09/07 11:06:25;;;;;;;11.93;6.00;;;;;;;25.47;53.47;101159.06;4920240;29;20045;-74
2022/09/07 11:09:21;;;;;;;8.95;6.50;;;;;;;25.70;53.25;101152.44;4933682;28;20071;-73
2022/09/07 11:12:29;;;;;;;10.10;6.13;;;;;;;25.73;52.09;101148.63;4940591;28;20599;-73
2022/09/07 11:15:11;;;;;;;14.40;6.85;;;;;;;25.71;52.48;101147.91;4902923;29;20535;-73
2022/09/07 11:17:51;;;;;;;12.65;6.63;;;;;;;25.61;53.13;101153.28;4926146;28;20502;-72
2022/09/07 11:20:31;;;;;;;22.77;7.57;;;;;;;25.40;52.22;101156.06;4933655;28;20040;-73
2022/09/07 11:23:16;;;;;;;7.45;6.18;;;;;;;25.09;52.67;101150.63;4934995;28;20567;-75
2022/09/07 11:25:57;;;;;;;12.18;7.30;;;;;;;24.88;53.87;101151.50;4933541;28;20044;-73
2022/09/07 11:28:35;;;;;;;20.05;6.90;;;;;;;24.75;54.58;101142.75;4933694;29;20528;-73
2022/09/07 11:31:17;;;;;;;21.98;6.00;;;;;;;24.61;55.50;101144.78;4934061;29;20148;-73
2022/09/07 11:34:19;;;;;;;22.55;7.43;;;;;;;24.45;55.20;101145.25;4929814;29;20424;-72
2022/09/07 11:37:01;;;;;;;9.32;6.50;;;;;;;24.33;55.14;101140.88;4934154;29;20419;-72
2022/09/07 11:40:03;;;;;;;13.77;6.32;;;;;;;24.32;55.74;101141.88;4933680;28;20837;-72
2022/09/07 11:42:40;;;;;;;19.27;6.50;;;;;;;24.85;55.58;101132.06;4930241;29;20064;-73
2022/09/07 11:45:34;;;;;;;9.02;4.25;;;;;;;25.34;53.49;101132.28;4931184;29;20048;-72
2022/09/07 11:48:14;;;;;;;13.55;5.60;;;;;;;25.74;52.74;101134.16;4933764;29;20047;-75
2022/09/07 11:50:53;;;;;;;6.78;5.20;;;;;;;26.02;50.74;101135.16;4933007;29;20055;-73
2022/09/07 11:53:31;;;;;;;21.88;6.07;;;;;;;26.00;50.64;101137.16;4932853;29;20036;-72
2022/09/07 11:56:10;;;;;;;8.90;4.70;;;;;;;26.07;50.15;101126.63;4932592;29;20060;-72
2022/09/07 11:59:14;;;;;;;21.27;5.20;;;;;;;26.12;50.78;101123.53;4933211;29;20052;-73